sensor_id;sensor_type;location;lat;lon;timestamp;temperature;humidity
51637;DHT22;37713;53.254;6.460;2023-05-14T00:01:33;11.00;99.90
51637;DHT22;37713;53.254;6.460;2023-05-14T00:03:59;11.00;99.90
51637;DHT22;37713;53.254;6.460;2023-05-14T00:06:25;11.00;99.90
51637;DHT22;37713;53.254;6.460;2023-05-14T00:08:51;11.00;99.90
51637;DHT22;37713;53.254;6.460;2023-05-14T00:11:16;10.90;99.90
51637;DHT22;37713;53.254;6.460;2023-05-14T00:13:42;10.90;99.90
51637;DHT22;37713;53.254;6.460;2023-05-14T00:16:08;10.90;99.90
51637;DHT22;37713;53.254;6.460;2023-05-14T00:18:34;10.90;99.90
51637;DHT22;37713;53.254;6.460;2023-05-14T00:20:59;10.90;99.90
51637;DHT22;37713;53.254;6.460;2023-05-14T00:23:25;10.80;99.90
51637;DHT22;37713;53.254;6.460;2023-05-14T00:25:51;10.80;99.90
51637;DHT22;37713;53.254;6.460;2023-05-14T00:28:17;10.80;99.90
51637;DHT22;37713;53.254;6.460;2023-05-14T00:30:43;10.80;99.90
51637;DHT22;37713;53.254;6.460;2023-05-14T00:33:09;10.80;99.90
51637;DHT22;37713;53.254;6.460;2023-05-14T00:35:34;10.70;99.90
51637;DHT22;37713;53.254;6.460;2023-05-14T00:38:01;10.70;99.90
51637;DHT22;37713;53.254;6.460;2023-05-14T00:40:27;10.70;99.90
51637;DHT22;37713;53.254;6.460;2023-05-14T00:42:54;10.70;99.90
51637;DHT22;37713;53.254;6.460;2023-05-14T00:45:20;10.70;99.90
51637;DHT22;37713;53.254;6.460;2023-05-14T00:47:47;10.60;99.90
51637;DHT22;37713;53.254;6.460;2023-05-14T00:50:14;10.60;99.90
51637;DHT22;37713;53.254;6.460;2023-05-14T00:52:41;10.60;99.90
51637;DHT22;37713;53.254;6.460;2023-05-14T00:55:07;10.60;99.90
51637;DHT22;37713;53.254;6.460;2023-05-14T00:57:34;10.60;99.90
51637;DHT22;37713;53.254;6.460;2023-05-14T01:00:01;10.60;99.90
51637;DHT22;37713;53.254;6.460;2023-05-14T01:02:27;10.60;99.90
51637;DHT22;37713;53.254;6.460;2023-05-14T01:04:54;10.60;99.90
51637;DHT22;37713;53.254;6.460;2023-05-14T01:10:24;10.60;99.90
51637;DHT22;37713;53.254;6.460;2023-05-14T01:13:12;10.60;99.90
51637;DHT22;37713;53.254;6.460;2023-05-14T01:15:39;10.60;99.90
51637;DHT22;37713;53.254;6.460;2023-05-14T01:18:10;10.60;99.90
51637;DHT22;37713;53.254;6.460;2023-05-14T01:20:38;10.60;99.90
51637;DHT22;37713;53.254;6.460;2023-05-14T01:23:03;10.60;99.90
51637;DHT22;37713;53.254;6.460;2023-05-14T01:25:30;10.50;99.90
51637;DHT22;37713;53.254;6.460;2023-05-14T01:28:04;10.50;99.90
51637;DHT22;37713;53.254;6.460;2023-05-14T01:30:37;10.50;99.90
51637;DHT22;37713;53.254;6.460;2023-05-14T01:33:13;10.50;99.90
51637;DHT22;37713;53.254;6.460;2023-05-14T01:35:40;10.50;99.90
51637;DHT22;37713;53.254;6.460;2023-05-14T01:38:08;10.50;99.90
51637;DHT22;37713;53.254;6.460;2023-05-14T01:40:35;10.50;99.90
51637;DHT22;37713;53.254;6.460;2023-05-14T01:43:02;10.50;99.90
51637;DHT22;37713;53.254;6.460;2023-05-14T01:45:29;10.50;99.90
51637;DHT22;37713;53.254;6.460;2023-05-14T01:47:55;10.40;99.90
51637;DHT22;37713;53.254;6.460;2023-05-14T01:50:21;10.40;99.90
51637;DHT22;37713;53.254;6.460;2023-05-14T01:52:47;10.40;99.90
51637;DHT22;37713;53.254;6.460;2023-05-14T01:55:13;10.40;99.90
51637;DHT22;37713;53.254;6.460;2023-05-14T01:57:40;10.40;99.90
51637;DHT22;37713;53.254;6.460;2023-05-14T02:00:06;10.40;99.90
51637;DHT22;37713;53.254;6.460;2023-05-14T02:02:32;10.40;99.90
51637;DHT22;37713;53.254;6.460;2023-05-14T02:04:58;10.40;99.90
51637;DHT22;37713;53.254;6.460;2023-05-14T02:07:24;10.40;99.90
51637;DHT22;37713;53.254;6.460;2023-05-14T02:09:50;10.40;99.90
51637;DHT22;37713;53.254;6.460;2023-05-14T02:12:15;10.40;99.90
51637;DHT22;37713;53.254;6.460;2023-05-14T02:14:41;10.40;99.90
51637;DHT22;37713;53.254;6.460;2023-05-14T02:17:07;10.40;99.90
51637;DHT22;37713;53.254;6.460;2023-05-14T02:19:33;10.50;99.90
51637;DHT22;37713;53.254;6.460;2023-05-14T02:21:59;10.50;99.90
51637;DHT22;37713;53.254;6.460;2023-05-14T02:24:25;10.50;99.90
51637;DHT22;37713;53.254;6.460;2023-05-14T02:26:51;10.50;99.90
51637;DHT22;37713;53.254;6.460;2023-05-14T02:29:17;10.50;99.90
51637;DHT22;37713;53.254;6.460;2023-05-14T02:31:43;10.50;99.90
51637;DHT22;37713;53.254;6.460;2023-05-14T02:34:09;10.50;99.90
51637;DHT22;37713;53.254;6.460;2023-05-14T02:36:34;10.50;99.90
51637;DHT22;37713;53.254;6.460;2023-05-14T02:39:00;10.50;99.90
51637;DHT22;37713;53.254;6.460;2023-05-14T02:41:26;10.50;99.90
51637;DHT22;37713;53.254;6.460;2023-05-14T02:43:52;10.50;99.90
51637;DHT22;37713;53.254;6.460;2023-05-14T02:46:18;10.50;99.90
51637;DHT22;37713;53.254;6.460;2023-05-14T02:48:44;10.50;99.90
51637;DHT22;37713;53.254;6.460;2023-05-14T02:51:10;10.50;99.90
51637;DHT22;37713;53.254;6.460;2023-05-14T02:53:36;10.50;99.90
51637;DHT22;37713;53.254;6.460;2023-05-14T02:56:02;10.50;99.90
51637;DHT22;37713;53.254;6.460;2023-05-14T02:58:28;10.50;99.90
51637;DHT22;37713;53.254;6.460;2023-05-14T03:00:54;10.50;99.90
51637;DHT22;37713;53.254;6.460;2023-05-14T03:03:19;10.50;99.90
51637;DHT22;37713;53.254;6.460;2023-05-14T03:05:45;10.50;99.90
51637;DHT22;37713;53.254;6.460;2023-05-14T03:08:11;10.50;99.90
51637;DHT22;37713;53.254;6.460;2023-05-14T03:10:37;10.40;99.90
51637;DHT22;37713;53.254;6.460;2023-05-14T03:13:03;10.40;99.90
51637;DHT22;37713;53.254;6.460;2023-05-14T03:15:28;10.50;99.90
51637;DHT22;37713;53.254;6.460;2023-05-14T03:17:54;10.50;99.90
51637;DHT22;37713;53.254;6.460;2023-05-14T03:20:21;10.40;99.90
51637;DHT22;37713;53.254;6.460;2023-05-14T03:22:47;10.40;99.90
51637;DHT22;37713;53.254;6.460;2023-05-14T03:25:12;10.40;99.90
51637;DHT22;37713;53.254;6.460;2023-05-14T03:27:38;10.40;99.90
51637;DHT22;37713;53.254;6.460;2023-05-14T03:30:05;10.40;99.90
51637;DHT22;37713;53.254;6.460;2023-05-14T03:32:31;10.40;99.90
51637;DHT22;37713;53.254;6.460;2023-05-14T03:34:57;10.40;99.90
51637;DHT22;37713;53.254;6.460;2023-05-14T03:37:23;10.30;99.90
51637;DHT22;37713;53.254;6.460;2023-05-14T03:39:49;10.30;99.90
51637;DHT22;37713;53.254;6.460;2023-05-14T03:42:14;10.30;99.90
51637;DHT22;37713;53.254;6.460;2023-05-14T03:44:40;10.30;99.90
51637;DHT22;37713;53.254;6.460;2023-05-14T03:47:06;10.30;99.90
51637;DHT22;37713;53.254;6.460;2023-05-14T03:49:32;10.30;99.90
51637;DHT22;37713;53.254;6.460;2023-05-14T03:51:58;10.30;99.90
51637;DHT22;37713;53.254;6.460;2023-05-14T03:54:26;10.30;99.90
51637;DHT22;37713;53.254;6.460;2023-05-14T03:56:52;10.30;99.90
51637;DHT22;37713;53.254;6.460;2023-05-14T03:59:18;10.30;99.90
51637;DHT22;37713;53.254;6.460;2023-05-14T04:01:43;10.30;99.90
51637;DHT22;37713;53.254;6.460;2023-05-14T04:04:09;10.30;99.90
51637;DHT22;37713;53.254;6.460;2023-05-14T04:06:35;10.30;99.90
51637;DHT22;37713;53.254;6.460;2023-05-14T04:09:01;10.40;99.90
51637;DHT22;37713;53.254;6.460;2023-05-14T04:11:28;10.40;99.90
51637;DHT22;37713;53.254;6.460;2023-05-14T04:13:53;10.40;99.90
51637;DHT22;37713;53.254;6.460;2023-05-14T04:16:19;10.40;99.90
51637;DHT22;37713;53.254;6.460;2023-05-14T04:18:45;10.50;99.90
51637;DHT22;37713;53.254;6.460;2023-05-14T04:21:11;10.50;99.90
51637;DHT22;37713;53.254;6.460;2023-05-14T04:23:37;10.50;99.90
51637;DHT22;37713;53.254;6.460;2023-05-14T04:26:03;10.60;99.90
51637;DHT22;37713;53.254;6.460;2023-05-14T04:28:29;10.60;99.90
51637;DHT22;37713;53.254;6.460;2023-05-14T04:30:55;10.60;99.90
51637;DHT22;37713;53.254;6.460;2023-05-14T04:33:21;10.70;99.90
51637;DHT22;37713;53.254;6.460;2023-05-14T04:35:47;10.70;99.90
51637;DHT22;37713;53.254;6.460;2023-05-14T04:38:12;10.80;99.90
51637;DHT22;37713;53.254;6.460;2023-05-14T04:40:39;10.80;99.90
51637;DHT22;37713;53.254;6.460;2023-05-14T04:43:06;10.90;99.90
51637;DHT22;37713;53.254;6.460;2023-05-14T04:45:32;10.90;99.90
51637;DHT22;37713;53.254;6.460;2023-05-14T04:47:58;11.00;99.90
51637;DHT22;37713;53.254;6.460;2023-05-14T04:50:24;11.10;99.90
51637;DHT22;37713;53.254;6.460;2023-05-14T04:52:50;11.10;99.90
51637;DHT22;37713;53.254;6.460;2023-05-14T04:55:17;11.20;99.90
51637;DHT22;37713;53.254;6.460;2023-05-14T04:57:42;11.30;99.90
51637;DHT22;37713;53.254;6.460;2023-05-14T05:00:09;11.30;99.90
51637;DHT22;37713;53.254;6.460;2023-05-14T05:02:35;11.40;99.90
51637;DHT22;37713;53.254;6.460;2023-05-14T05:05:02;11.50;99.90
51637;DHT22;37713;53.254;6.460;2023-05-14T05:07:28;11.50;99.90
51637;DHT22;37713;53.254;6.460;2023-05-14T05:09:54;11.60;99.90
51637;DHT22;37713;53.254;6.460;2023-05-14T05:12:20;11.60;99.90
51637;DHT22;37713;53.254;6.460;2023-05-14T05:14:46;11.70;99.90
51637;DHT22;37713;53.254;6.460;2023-05-14T05:17:11;11.80;99.90
51637;DHT22;37713;53.254;6.460;2023-05-14T05:19:37;11.80;99.90
51637;DHT22;37713;53.254;6.460;2023-05-14T05:22:03;11.80;99.90
51637;DHT22;37713;53.254;6.460;2023-05-14T05:24:29;11.90;99.90
51637;DHT22;37713;53.254;6.460;2023-05-14T05:26:55;11.90;99.90
51637;DHT22;37713;53.254;6.460;2023-05-14T05:29:22;12.00;99.90
51637;DHT22;37713;53.254;6.460;2023-05-14T05:31:48;12.00;99.90
51637;DHT22;37713;53.254;6.460;2023-05-14T05:34:14;12.00;99.90
51637;DHT22;37713;53.254;6.460;2023-05-14T05:36:40;12.10;99.90
51637;DHT22;37713;53.254;6.460;2023-05-14T05:39:05;12.10;99.90
51637;DHT22;37713;53.254;6.460;2023-05-14T05:41:31;12.20;99.90
51637;DHT22;37713;53.254;6.460;2023-05-14T05:43:57;12.30;99.90
51637;DHT22;37713;53.254;6.460;2023-05-14T05:46:23;12.40;99.90
51637;DHT22;37713;53.254;6.460;2023-05-14T05:48:48;12.60;99.90
51637;DHT22;37713;53.254;6.460;2023-05-14T05:51:14;12.80;99.90
51637;DHT22;37713;53.254;6.460;2023-05-14T05:53:40;13.00;99.90
51637;DHT22;37713;53.254;6.460;2023-05-14T05:56:06;13.20;99.90
51637;DHT22;37713;53.254;6.460;2023-05-14T05:58:32;13.40;99.90
51637;DHT22;37713;53.254;6.460;2023-05-14T06:00:58;13.70;99.90
51637;DHT22;37713;53.254;6.460;2023-05-14T06:03:24;13.90;99.90
51637;DHT22;37713;53.254;6.460;2023-05-14T06:05:50;14.10;99.90
51637;DHT22;37713;53.254;6.460;2023-05-14T06:08:17;14.20;99.90
51637;DHT22;37713;53.254;6.460;2023-05-14T06:10:43;14.40;99.90
51637;DHT22;37713;53.254;6.460;2023-05-14T06:13:09;14.50;99.90
51637;DHT22;37713;53.254;6.460;2023-05-14T06:15:35;14.50;99.90
51637;DHT22;37713;53.254;6.460;2023-05-14T06:18:01;14.50;99.90
51637;DHT22;37713;53.254;6.460;2023-05-14T06:20:27;14.60;99.90
51637;DHT22;37713;53.254;6.460;2023-05-14T06:22:53;14.60;99.90
51637;DHT22;37713;53.254;6.460;2023-05-14T06:25:18;14.60;99.90
51637;DHT22;37713;53.254;6.460;2023-05-14T06:27:44;14.80;99.90
51637;DHT22;37713;53.254;6.460;2023-05-14T06:30:11;14.80;99.90
51637;DHT22;37713;53.254;6.460;2023-05-14T06:32:36;14.90;99.90
51637;DHT22;37713;53.254;6.460;2023-05-14T06:35:02;14.90;99.90
51637;DHT22;37713;53.254;6.460;2023-05-14T06:37:28;15.00;99.90
51637;DHT22;37713;53.254;6.460;2023-05-14T06:39:54;14.90;99.90
51637;DHT22;37713;53.254;6.460;2023-05-14T06:42:20;14.90;99.90
51637;DHT22;37713;53.254;6.460;2023-05-14T06:44:46;14.70;99.90
51637;DHT22;37713;53.254;6.460;2023-05-14T06:47:12;14.70;99.90
51637;DHT22;37713;53.254;6.460;2023-05-14T06:49:38;14.70;99.90
51637;DHT22;37713;53.254;6.460;2023-05-14T06:52:04;14.50;99.90
51637;DHT22;37713;53.254;6.460;2023-05-14T06:54:30;14.60;99.90
51637;DHT22;37713;53.254;6.460;2023-05-14T06:56:56;14.60;99.90
51637;DHT22;37713;53.254;6.460;2023-05-14T06:59:22;14.60;99.90
51637;DHT22;37713;53.254;6.460;2023-05-14T07:01:48;14.60;99.90
51637;DHT22;37713;53.254;6.460;2023-05-14T07:04:14;14.70;99.90
51637;DHT22;37713;53.254;6.460;2023-05-14T07:06:39;14.80;99.90
51637;DHT22;37713;53.254;6.460;2023-05-14T07:09:05;15.00;99.90
51637;DHT22;37713;53.254;6.460;2023-05-14T07:11:32;15.10;99.90
51637;DHT22;37713;53.254;6.460;2023-05-14T07:13:58;15.50;99.90
51637;DHT22;37713;53.254;6.460;2023-05-14T07:16:24;15.90;99.90
51637;DHT22;37713;53.254;6.460;2023-05-14T07:18:50;16.20;99.90
51637;DHT22;37713;53.254;6.460;2023-05-14T07:21:16;16.50;99.90
51637;DHT22;37713;53.254;6.460;2023-05-14T07:23:42;16.70;99.90
51637;DHT22;37713;53.254;6.460;2023-05-14T07:26:08;17.00;99.90
51637;DHT22;37713;53.254;6.460;2023-05-14T07:28:34;17.30;99.90
51637;DHT22;37713;53.254;6.460;2023-05-14T07:31:00;17.80;99.90
51637;DHT22;37713;53.254;6.460;2023-05-14T07:33:26;17.90;99.90
51637;DHT22;37713;53.254;6.460;2023-05-14T07:35:52;18.20;99.90
51637;DHT22;37713;53.254;6.460;2023-05-14T07:38:19;18.10;99.90
51637;DHT22;37713;53.254;6.460;2023-05-14T07:40:45;18.40;99.90
51637;DHT22;37713;53.254;6.460;2023-05-14T07:43:10;18.70;99.90
51637;DHT22;37713;53.254;6.460;2023-05-14T07:45:36;19.20;99.90
51637;DHT22;37713;53.254;6.460;2023-05-14T07:48:03;19.30;99.90
51637;DHT22;37713;53.254;6.460;2023-05-14T07:50:29;19.30;99.90
51637;DHT22;37713;53.254;6.460;2023-05-14T07:52:56;18.90;99.90
51637;DHT22;37713;53.254;6.460;2023-05-14T07:55:21;18.20;99.90
51637;DHT22;37713;53.254;6.460;2023-05-14T07:57:47;17.90;99.90
51637;DHT22;37713;53.254;6.460;2023-05-14T08:00:13;17.70;99.90
51637;DHT22;37713;53.254;6.460;2023-05-14T08:02:40;17.80;99.90
51637;DHT22;37713;53.254;6.460;2023-05-14T08:05:07;18.30;99.90
51637;DHT22;37713;53.254;6.460;2023-05-14T08:07:33;18.30;99.90
51637;DHT22;37713;53.254;6.460;2023-05-14T08:09:59;18.50;99.90
51637;DHT22;37713;53.254;6.460;2023-05-14T08:12:25;18.60;99.90
51637;DHT22;37713;53.254;6.460;2023-05-14T08:14:51;18.80;99.90
51637;DHT22;37713;53.254;6.460;2023-05-14T08:17:17;18.80;99.90
51637;DHT22;37713;53.254;6.460;2023-05-14T08:19:43;18.60;99.90
51637;DHT22;37713;53.254;6.460;2023-05-14T08:22:09;18.50;99.90
51637;DHT22;37713;53.254;6.460;2023-05-14T08:24:34;18.60;99.90
51637;DHT22;37713;53.254;6.460;2023-05-14T08:27:00;18.90;99.90
51637;DHT22;37713;53.254;6.460;2023-05-14T08:29:27;19.20;99.90
51637;DHT22;37713;53.254;6.460;2023-05-14T08:31:52;19.10;99.90
51637;DHT22;37713;53.254;6.460;2023-05-14T08:34:18;18.80;99.90
51637;DHT22;37713;53.254;6.460;2023-05-14T08:36:44;18.80;99.90
51637;DHT22;37713;53.254;6.460;2023-05-14T08:39:10;18.90;99.90
51637;DHT22;37713;53.254;6.460;2023-05-14T08:41:36;18.90;99.90
51637;DHT22;37713;53.254;6.460;2023-05-14T08:46:37;18.80;99.90
51637;DHT22;37713;53.254;6.460;2023-05-14T08:51:57;18.70;99.90
51637;DHT22;37713;53.254;6.460;2023-05-14T08:54:24;18.50;99.90
51637;DHT22;37713;53.254;6.460;2023-05-14T08:56:51;18.60;99.90
51637;DHT22;37713;53.254;6.460;2023-05-14T08:59:18;18.60;99.90
51637;DHT22;37713;53.254;6.460;2023-05-14T09:01:46;18.60;99.90
51637;DHT22;37713;53.254;6.460;2023-05-14T09:04:19;18.50;99.90
51637;DHT22;37713;53.254;6.460;2023-05-14T09:06:48;18.70;99.90
51637;DHT22;37713;53.254;6.460;2023-05-14T09:09:15;18.60;99.90
51637;DHT22;37713;53.254;6.460;2023-05-14T09:11:44;18.80;99.90
51637;DHT22;37713;53.254;6.460;2023-05-14T09:14:10;18.70;99.90
51637;DHT22;37713;53.254;6.460;2023-05-14T09:16:36;18.60;99.90
51637;DHT22;37713;53.254;6.460;2023-05-14T09:19:03;18.50;99.90
51637;DHT22;37713;53.254;6.460;2023-05-14T09:21:29;18.50;99.90
51637;DHT22;37713;53.254;6.460;2023-05-14T09:23:56;18.50;99.90
51637;DHT22;37713;53.254;6.460;2023-05-14T09:26:23;18.80;99.90
51637;DHT22;37713;53.254;6.460;2023-05-14T09:28:55;19.00;99.90
51637;DHT22;37713;53.254;6.460;2023-05-14T09:31:22;19.10;99.90
51637;DHT22;37713;53.254;6.460;2023-05-14T09:33:51;19.10;99.90
51637;DHT22;37713;53.254;6.460;2023-05-14T09:36:18;19.20;99.90
51637;DHT22;37713;53.254;6.460;2023-05-14T09:38:44;19.30;99.90
51637;DHT22;37713;53.254;6.460;2023-05-14T09:41:09;19.30;99.90
51637;DHT22;37713;53.254;6.460;2023-05-14T09:43:35;19.50;99.90
51637;DHT22;37713;53.254;6.460;2023-05-14T09:46:01;19.70;99.90
51637;DHT22;37713;53.254;6.460;2023-05-14T09:48:27;19.90;99.90
51637;DHT22;37713;53.254;6.460;2023-05-14T09:50:53;20.00;99.90
51637;DHT22;37713;53.254;6.460;2023-05-14T09:53:19;20.30;99.90
51637;DHT22;37713;53.254;6.460;2023-05-14T09:55:46;20.30;99.90
51637;DHT22;37713;53.254;6.460;2023-05-14T09:58:12;20.20;99.90
51637;DHT22;37713;53.254;6.460;2023-05-14T10:00:44;20.20;99.90
51637;DHT22;37713;53.254;6.460;2023-05-14T10:03:13;20.30;99.90
51637;DHT22;37713;53.254;6.460;2023-05-14T10:05:43;20.20;99.90
51637;DHT22;37713;53.254;6.460;2023-05-14T10:08:19;20.30;99.90
51637;DHT22;37713;53.254;6.460;2023-05-14T10:10:48;20.20;99.90
51637;DHT22;37713;53.254;6.460;2023-05-14T10:13:19;20.30;99.90
51637;DHT22;37713;53.254;6.460;2023-05-14T10:16:04;20.50;99.90
51637;DHT22;37713;53.254;6.460;2023-05-14T10:18:40;20.50;99.90
51637;DHT22;37713;53.254;6.460;2023-05-14T10:21:06;20.50;99.90
51637;DHT22;37713;53.254;6.460;2023-05-14T10:23:33;20.40;99.90
51637;DHT22;37713;53.254;6.460;2023-05-14T10:26:02;20.30;99.90
51637;DHT22;37713;53.254;6.460;2023-05-14T10:28:30;20.20;99.90
51637;DHT22;37713;53.254;6.460;2023-05-14T10:30:56;20.10;99.90
51637;DHT22;37713;53.254;6.460;2023-05-14T10:33:22;20.30;99.90
51637;DHT22;37713;53.254;6.460;2023-05-14T10:35:55;20.30;99.90
51637;DHT22;37713;53.254;6.460;2023-05-14T10:38:32;20.50;99.90
51637;DHT22;37713;53.254;6.460;2023-05-14T10:41:10;20.40;99.90
51637;DHT22;37713;53.254;6.460;2023-05-14T10:43:38;20.50;99.90
51637;DHT22;37713;53.254;6.460;2023-05-14T10:46:05;20.70;99.90
51637;DHT22;37713;53.254;6.460;2023-05-14T10:48:31;20.70;99.90
51637;DHT22;37713;53.254;6.460;2023-05-14T10:50:57;20.60;99.90
51637;DHT22;37713;53.254;6.460;2023-05-14T10:53:40;20.40;99.90
51637;DHT22;37713;53.254;6.460;2023-05-14T10:56:12;20.50;99.90
51637;DHT22;37713;53.254;6.460;2023-05-14T10:58:42;20.60;99.90
51637;DHT22;37713;53.254;6.460;2023-05-14T11:01:10;20.50;99.90
51637;DHT22;37713;53.254;6.460;2023-05-14T11:03:41;20.60;99.90
51637;DHT22;37713;53.254;6.460;2023-05-14T11:06:08;20.60;99.90
51637;DHT22;37713;53.254;6.460;2023-05-14T11:08:34;20.70;99.90
51637;DHT22;37713;53.254;6.460;2023-05-14T11:11:01;20.80;99.90
51637;DHT22;37713;53.254;6.460;2023-05-14T11:13:27;20.90;99.90
51637;DHT22;37713;53.254;6.460;2023-05-14T11:15:53;20.90;99.90
51637;DHT22;37713;53.254;6.460;2023-05-14T11:18:26;21.00;99.90
51637;DHT22;37713;53.254;6.460;2023-05-14T11:20:53;21.00;99.90
51637;DHT22;37713;53.254;6.460;2023-05-14T11:23:23;20.90;99.90
51637;DHT22;37713;53.254;6.460;2023-05-14T11:25:51;20.80;99.90
51637;DHT22;37713;53.254;6.460;2023-05-14T11:28:22;20.80;99.90
51637;DHT22;37713;53.254;6.460;2023-05-14T11:30:53;20.70;99.90
51637;DHT22;37713;53.254;6.460;2023-05-14T11:33:19;20.80;99.90
51637;DHT22;37713;53.254;6.460;2023-05-14T11:35:48;21.00;99.90
51637;DHT22;37713;53.254;6.460;2023-05-14T11:38:18;21.20;99.90
51637;DHT22;37713;53.254;6.460;2023-05-14T11:40:54;21.30;99.90
51637;DHT22;37713;53.254;6.460;2023-05-14T11:43:20;21.40;99.90
51637;DHT22;37713;53.254;6.460;2023-05-14T11:45:51;21.40;99.90
51637;DHT22;37713;53.254;6.460;2023-05-14T11:48:17;21.50;99.90
51637;DHT22;37713;53.254;6.460;2023-05-14T11:50:47;21.40;99.90
51637;DHT22;37713;53.254;6.460;2023-05-14T11:53:24;21.60;99.90
51637;DHT22;37713;53.254;6.460;2023-05-14T11:55:52;21.80;99.90
51637;DHT22;37713;53.254;6.460;2023-05-14T11:58:22;21.90;99.90
51637;DHT22;37713;53.254;6.460;2023-05-14T12:00:49;22.00;99.90
51637;DHT22;37713;53.254;6.460;2023-05-14T12:03:15;22.00;99.90
51637;DHT22;37713;53.254;6.460;2023-05-14T12:06:04;21.90;99.90
51637;DHT22;37713;53.254;6.460;2023-05-14T12:08:40;21.90;99.90
51637;DHT22;37713;53.254;6.460;2023-05-14T12:11:07;21.90;99.90
51637;DHT22;37713;53.254;6.460;2023-05-14T12:13:33;21.90;99.90
51637;DHT22;37713;53.254;6.460;2023-05-14T12:16:01;22.00;99.90
51637;DHT22;37713;53.254;6.460;2023-05-14T12:18:29;22.10;99.90
51637;DHT22;37713;53.254;6.460;2023-05-14T12:20:57;22.20;99.90
51637;DHT22;37713;53.254;6.460;2023-05-14T12:23:27;22.30;99.90
51637;DHT22;37713;53.254;6.460;2023-05-14T12:25:53;22.30;99.90
51637;DHT22;37713;53.254;6.460;2023-05-14T12:28:19;22.20;99.90
51637;DHT22;37713;53.254;6.460;2023-05-14T12:30:54;22.20;99.90
51637;DHT22;37713;53.254;6.460;2023-05-14T12:33:20;22.20;99.90
51637;DHT22;37713;53.254;6.460;2023-05-14T12:35:51;22.20;99.90
51637;DHT22;37713;53.254;6.460;2023-05-14T12:38:27;22.30;99.90
51637;DHT22;37713;53.254;6.460;2023-05-14T12:40:53;22.40;99.90
51637;DHT22;37713;53.254;6.460;2023-05-14T12:43:18;22.40;99.90
51637;DHT22;37713;53.254;6.460;2023-05-14T12:45:44;22.40;99.90
51637;DHT22;37713;53.254;6.460;2023-05-14T12:48:10;22.40;99.90
51637;DHT22;37713;53.254;6.460;2023-05-14T12:50:37;22.40;99.90
51637;DHT22;37713;53.254;6.460;2023-05-14T12:53:03;22.50;99.90
51637;DHT22;37713;53.254;6.460;2023-05-14T12:55:30;22.60;99.90
51637;DHT22;37713;53.254;6.460;2023-05-14T12:57:56;22.60;99.90
51637;DHT22;37713;53.254;6.460;2023-05-14T13:00:22;22.60;99.90
51637;DHT22;37713;53.254;6.460;2023-05-14T13:02:48;22.60;99.90
51637;DHT22;37713;53.254;6.460;2023-05-14T13:05:14;22.50;99.90
51637;DHT22;37713;53.254;6.460;2023-05-14T13:07:40;22.60;99.90
51637;DHT22;37713;53.254;6.460;2023-05-14T13:10:06;22.40;99.90
51637;DHT22;37713;53.254;6.460;2023-05-14T13:12:32;22.20;99.90
51637;DHT22;37713;53.254;6.460;2023-05-14T13:14:58;22.00;99.90
51637;DHT22;37713;53.254;6.460;2023-05-14T13:17:26;21.70;99.90
51637;DHT22;37713;53.254;6.460;2023-05-14T13:19:52;21.50;99.90
51637;DHT22;37713;53.254;6.460;2023-05-14T13:22:18;21.60;99.90
51637;DHT22;37713;53.254;6.460;2023-05-14T13:24:44;21.50;99.90
51637;DHT22;37713;53.254;6.460;2023-05-14T13:27:10;21.40;99.90
51637;DHT22;37713;53.254;6.460;2023-05-14T13:29:36;21.30;99.90
51637;DHT22;37713;53.254;6.460;2023-05-14T13:32:02;21.30;99.90
51637;DHT22;37713;53.254;6.460;2023-05-14T13:34:28;21.20;99.90
51637;DHT22;37713;53.254;6.460;2023-05-14T13:36:54;21.00;99.90
51637;DHT22;37713;53.254;6.460;2023-05-14T13:39:20;20.80;99.90
51637;DHT22;37713;53.254;6.460;2023-05-14T13:41:47;20.70;99.90
51637;DHT22;37713;53.254;6.460;2023-05-14T13:44:15;20.70;99.90
51637;DHT22;37713;53.254;6.460;2023-05-14T13:46:41;20.60;99.90
51637;DHT22;37713;53.254;6.460;2023-05-14T13:49:07;20.50;99.90
51637;DHT22;37713;53.254;6.460;2023-05-14T13:51:32;20.50;99.90
51637;DHT22;37713;53.254;6.460;2023-05-14T13:53:58;20.50;99.90
51637;DHT22;37713;53.254;6.460;2023-05-14T13:56:24;20.50;99.90
51637;DHT22;37713;53.254;6.460;2023-05-14T13:58:50;20.50;99.90
51637;DHT22;37713;53.254;6.460;2023-05-14T14:01:16;20.50;99.90
51637;DHT22;37713;53.254;6.460;2023-05-14T14:03:42;20.50;99.90
51637;DHT22;37713;53.254;6.460;2023-05-14T14:06:07;20.50;99.90
51637;DHT22;37713;53.254;6.460;2023-05-14T14:08:33;20.50;99.90
51637;DHT22;37713;53.254;6.460;2023-05-14T14:10:59;20.30;99.90
51637;DHT22;37713;53.254;6.460;2023-05-14T14:13:25;20.30;99.90
51637;DHT22;37713;53.254;6.460;2023-05-14T14:15:51;20.30;99.90
51637;DHT22;37713;53.254;6.460;2023-05-14T14:18:16;20.30;99.90
51637;DHT22;37713;53.254;6.460;2023-05-14T14:20:42;20.40;99.90
51637;DHT22;37713;53.254;6.460;2023-05-14T14:23:08;20.50;99.90
51637;DHT22;37713;53.254;6.460;2023-05-14T14:25:34;20.50;99.90
51637;DHT22;37713;53.254;6.460;2023-05-14T14:27:59;20.60;99.90
51637;DHT22;37713;53.254;6.460;2023-05-14T14:30:25;20.70;99.90
51637;DHT22;37713;53.254;6.460;2023-05-14T14:32:51;20.60;99.90
51637;DHT22;37713;53.254;6.460;2023-05-14T14:35:18;20.70;99.90
51637;DHT22;37713;53.254;6.460;2023-05-14T14:37:45;20.40;99.90
51637;DHT22;37713;53.254;6.460;2023-05-14T14:40:15;20.50;99.90
51637;DHT22;37713;53.254;6.460;2023-05-14T14:42:42;20.60;99.90
51637;DHT22;37713;53.254;6.460;2023-05-14T14:45:08;20.60;99.90
51637;DHT22;37713;53.254;6.460;2023-05-14T14:47:34;20.50;99.90
51637;DHT22;37713;53.254;6.460;2023-05-14T14:50:00;20.30;99.90
51637;DHT22;37713;53.254;6.460;2023-05-14T14:52:26;20.40;99.90
51637;DHT22;37713;53.254;6.460;2023-05-14T14:54:53;20.30;99.90
51637;DHT22;37713;53.254;6.460;2023-05-14T14:57:19;20.20;99.90
51637;DHT22;37713;53.254;6.460;2023-05-14T14:59:45;20.20;99.90
51637;DHT22;37713;53.254;6.460;2023-05-14T15:02:11;20.10;99.90
51637;DHT22;37713;53.254;6.460;2023-05-14T15:04:37;20.00;99.90
51637;DHT22;37713;53.254;6.460;2023-05-14T15:07:03;20.00;99.90
51637;DHT22;37713;53.254;6.460;2023-05-14T15:09:29;20.00;99.90
51637;DHT22;37713;53.254;6.460;2023-05-14T15:11:56;20.10;99.90
51637;DHT22;37713;53.254;6.460;2023-05-14T15:14:21;20.00;99.90
51637;DHT22;37713;53.254;6.460;2023-05-14T15:16:47;19.90;99.90
51637;DHT22;37713;53.254;6.460;2023-05-14T15:19:13;19.80;99.90
51637;DHT22;37713;53.254;6.460;2023-05-14T15:21:39;19.80;99.90
51637;DHT22;37713;53.254;6.460;2023-05-14T15:24:05;19.70;99.90
51637;DHT22;37713;53.254;6.460;2023-05-14T15:26:31;19.70;99.90
51637;DHT22;37713;53.254;6.460;2023-05-14T15:28:58;19.60;99.90
51637;DHT22;37713;53.254;6.460;2023-05-14T15:31:24;19.60;99.90
51637;DHT22;37713;53.254;6.460;2023-05-14T15:33:51;19.20;99.90
51637;DHT22;37713;53.254;6.460;2023-05-14T15:36:18;19.10;99.90